sensor_id;sensor_type;location;lat;lon;timestamp;P1;P2;P0
73517;PMS5003;61766;60.318;25.044;2023-06-04T00:01:24;1;1;
73517;PMS5003;61766;60.318;25.044;2023-06-04T00:03:49;2;2;
73517;PMS5003;61766;60.318;25.044;2023-06-04T00:06:14;1;1;
73517;PMS5003;61766;60.318;25.044;2023-06-04T00:08:39;1;1;
73517;PMS5003;61766;60.318;25.044;2023-06-04T00:11:04;2;2;
73517;PMS5003;61766;60.318;25.044;2023-06-04T00:13:29;1;1;
73517;PMS5003;61766;60.318;25.044;2023-06-04T00:15:54;1;1;
73517;PMS5003;61766;60.318;25.044;2023-06-04T00:18:19;0;0;
73517;PMS5003;61766;60.318;25.044;2023-06-04T00:20:44;1;1;
73517;PMS5003;61766;60.318;25.044;2023-06-04T00:23:09;1;1;
73517;PMS5003;61766;60.318;25.044;2023-06-04T00:25:35;1;1;
73517;PMS5003;61766;60.318;25.044;2023-06-04T00:28:00;1;1;
73517;PMS5003;61766;60.318;25.044;2023-06-04T00:30:25;1;1;
73517;PMS5003;61766;60.318;25.044;2023-06-04T00:32:50;1;1;
73517;PMS5003;61766;60.318;25.044;2023-06-04T00:35:15;1;1;
73517;PMS5003;61766;60.318;25.044;2023-06-04T00:37:40;1;1;
73517;PMS5003;61766;60.318;25.044;2023-06-04T00:40:05;2;2;
73517;PMS5003;61766;60.318;25.044;2023-06-04T00:42:30;2;2;
73517;PMS5003;61766;60.318;25.044;2023-06-04T00:44:55;1;1;
73517;PMS5003;61766;60.318;25.044;2023-06-04T00:47:20;1;1;
73517;PMS5003;61766;60.318;25.044;2023-06-04T00:49:45;1;1;
73517;PMS5003;61766;60.318;25.044;2023-06-04T00:52:11;1;1;
73517;PMS5003;61766;60.318;25.044;2023-06-04T00:54:36;0;0;
73517;PMS5003;61766;60.318;25.044;2023-06-04T00:57:00;4;1;
73517;PMS5003;61766;60.318;25.044;2023-06-04T00:59:26;2;2;
73517;PMS5003;61766;60.318;25.044;2023-06-04T01:01:53;1;0;
73517;PMS5003;61766;60.318;25.044;2023-06-04T01:04:17;2;2;
73517;PMS5003;61766;60.318;25.044;2023-06-04T01:06:42;1;1;
73517;PMS5003;61766;60.318;25.044;2023-06-04T01:09:06;1;1;
73517;PMS5003;61766;60.318;25.044;2023-06-04T01:11:32;0;0;
73517;PMS5003;61766;60.318;25.044;2023-06-04T01:13:56;2;2;
73517;PMS5003;61766;60.318;25.044;2023-06-04T01:16:21;2;2;
73517;PMS5003;61766;60.318;25.044;2023-06-04T01:18:46;2;1;
73517;PMS5003;61766;60.318;25.044;2023-06-04T01:21:11;2;2;
73517;PMS5003;61766;60.318;25.044;2023-06-04T01:23:40;2;1;
73517;PMS5003;61766;60.318;25.044;2023-06-04T01:26:02;1;1;
73517;PMS5003;61766;60.318;25.044;2023-06-04T01:28:26;1;1;
73517;PMS5003;61766;60.318;25.044;2023-06-04T01:30:51;1;1;
73517;PMS5003;61766;60.318;25.044;2023-06-04T01:33:17;1;1;
73517;PMS5003;61766;60.318;25.044;2023-06-04T01:35:42;3;2;
73517;PMS5003;61766;60.318;25.044;2023-06-04T01:38:07;2;2;
73517;PMS5003;61766;60.318;25.044;2023-06-04T01:40:32;2;2;
73517;PMS5003;61766;60.318;25.044;2023-06-04T01:42:57;2;2;
73517;PMS5003;61766;60.318;25.044;2023-06-04T01:45:23;2;2;
73517;PMS5003;61766;60.318;25.044;2023-06-04T01:47:48;2;2;
73517;PMS5003;61766;60.318;25.044;2023-06-04T01:50:13;1;1;
73517;PMS5003;61766;60.318;25.044;2023-06-04T01:52:38;2;2;
73517;PMS5003;61766;60.318;25.044;2023-06-04T01:55:03;1;1;
73517;PMS5003;61766;60.318;25.044;2023-06-04T01:57:28;2;2;
73517;PMS5003;61766;60.318;25.044;2023-06-04T01:59:53;1;1;
73517;PMS5003;61766;60.318;25.044;2023-06-04T02:02:18;2;2;
73517;PMS5003;61766;60.318;25.044;2023-06-04T02:04:43;1;1;
73517;PMS5003;61766;60.318;25.044;2023-06-04T02:07:08;3;3;
73517;PMS5003;61766;60.318;25.044;2023-06-04T02:09:33;2;2;
73517;PMS5003;61766;60.318;25.044;2023-06-04T02:11:58;2;2;
73517;PMS5003;61766;60.318;25.044;2023-06-04T02:14:23;2;2;
73517;PMS5003;61766;60.318;25.044;2023-06-04T02:16:48;3;3;
73517;PMS5003;61766;60.318;25.044;2023-06-04T02:19:13;2;2;
73517;PMS5003;61766;60.318;25.044;2023-06-04T02:21:39;2;2;
73517;PMS5003;61766;60.318;25.044;2023-06-04T02:24:04;1;1;
73517;PMS5003;61766;60.318;25.044;2023-06-04T02:26:29;2;2;
73517;PMS5003;61766;60.318;25.044;2023-06-04T02:28:54;2;2;
73517;PMS5003;61766;60.318;25.044;2023-06-04T02:31:19;3;3;
73517;PMS5003;61766;60.318;25.044;2023-06-04T02:33:44;2;2;
73517;PMS5003;61766;60.318;25.044;2023-06-04T02:36:09;3;3;
73517;PMS5003;61766;60.318;25.044;2023-06-04T02:38:34;2;2;
73517;PMS5003;61766;60.318;25.044;2023-06-04T02:40:59;2;2;
73517;PMS5003;61766;60.318;25.044;2023-06-04T02:43:24;3;3;
73517;PMS5003;61766;60.318;25.044;2023-06-04T02:45:49;2;2;
73517;PMS5003;61766;60.318;25.044;2023-06-04T02:48:14;2;2;
73517;PMS5003;61766;60.318;25.044;2023-06-04T02:50:39;2;2;
73517;PMS5003;61766;60.318;25.044;2023-06-04T02:53:05;6;6;
73517;PMS5003;61766;60.318;25.044;2023-06-04T02:55:30;2;2;
73517;PMS5003;61766;60.318;25.044;2023-06-04T02:57:55;3;3;
73517;PMS5003;61766;60.318;25.044;2023-06-04T03:00:20;3;3;
73517;PMS5003;61766;60.318;25.044;2023-06-04T03:02:46;3;3;
73517;PMS5003;61766;60.318;25.044;2023-06-04T03:05:11;5;4;
73517;PMS5003;61766;60.318;25.044;2023-06-04T03:07:35;3;3;
73517;PMS5003;61766;60.318;25.044;2023-06-04T03:10:00;2;2;
73517;PMS5003;61766;60.318;25.044;2023-06-04T03:12:26;1;1;
73517;PMS5003;61766;60.318;25.044;2023-06-04T03:14:51;4;3;
73517;PMS5003;61766;60.318;25.044;2023-06-04T03:17:16;2;2;
73517;PMS5003;61766;60.318;25.044;2023-06-04T03:19:41;1;1;
73517;PMS5003;61766;60.318;25.044;2023-06-04T03:22:06;2;2;
73517;PMS5003;61766;60.318;25.044;2023-06-04T03:24:32;3;3;
73517;PMS5003;61766;60.318;25.044;2023-06-04T03:26:56;2;2;
73517;PMS5003;61766;60.318;25.044;2023-06-04T03:29:21;4;4;
73517;PMS5003;61766;60.318;25.044;2023-06-04T03:31:46;2;2;
73517;PMS5003;61766;60.318;25.044;2023-06-04T03:34:11;2;2;
73517;PMS5003;61766;60.318;25.044;2023-06-04T03:36:36;5;4;
73517;PMS5003;61766;60.318;25.044;2023-06-04T03:39:01;3;3;
73517;PMS5003;61766;60.318;25.044;2023-06-04T03:41:26;3;3;
73517;PMS5003;61766;60.318;25.044;2023-06-04T03:43:51;2;2;
73517;PMS5003;61766;60.318;25.044;2023-06-04T03:46:16;3;3;
73517;PMS5003;61766;60.318;25.044;2023-06-04T03:48:41;2;2;
73517;PMS5003;61766;60.318;25.044;2023-06-04T03:51:06;2;2;
73517;PMS5003;61766;60.318;25.044;2023-06-04T03:53:31;2;2;
73517;PMS5003;61766;60.318;25.044;2023-06-04T03:55:56;3;3;
73517;PMS5003;61766;60.318;25.044;2023-06-04T03:58:22;3;3;
73517;PMS5003;61766;60.318;25.044;2023-06-04T04:00:47;3;3;
73517;PMS5003;61766;60.318;25.044;2023-06-04T04:03:12;3;3;
73517;PMS5003;61766;60.318;25.044;2023-06-04T04:05:37;3;3;
73517;PMS5003;61766;60.318;25.044;2023-06-04T04:08:02;3;3;
73517;PMS5003;61766;60.318;25.044;2023-06-04T04:10:27;3;3;
73517;PMS5003;61766;60.318;25.044;2023-06-04T04:12:52;2;2;
73517;PMS5003;61766;60.318;25.044;2023-06-04T04:15:17;4;4;
73517;PMS5003;61766;60.318;25.044;2023-06-04T04:17:42;4;4;
73517;PMS5003;61766;60.318;25.044;2023-06-04T04:20:07;2;2;
73517;PMS5003;61766;60.318;25.044;2023-06-04T04:22:32;2;2;
73517;PMS5003;61766;60.318;25.044;2023-06-04T04:24:58;3;3;
73517;PMS5003;61766;60.318;25.044;2023-06-04T04:27:23;3;3;
73517;PMS5003;61766;60.318;25.044;2023-06-04T04:29:48;3;3;
73517;PMS5003;61766;60.318;25.044;2023-06-04T04:32:13;2;2;
73517;PMS5003;61766;60.318;25.044;2023-06-04T04:34:38;3;3;
73517;PMS5003;61766;60.318;25.044;2023-06-04T04:37:03;2;2;
73517;PMS5003;61766;60.318;25.044;2023-06-04T04:39:28;2;2;
73517;PMS5003;61766;60.318;25.044;2023-06-04T04:41:53;3;3;
73517;PMS5003;61766;60.318;25.044;2023-06-04T04:44:18;1;1;
73517;PMS5003;61766;60.318;25.044;2023-06-04T04:46:43;4;3;
73517;PMS5003;61766;60.318;25.044;2023-06-04T04:49:08;3;3;
73517;PMS5003;61766;60.318;25.044;2023-06-04T04:51:35;3;3;
73517;PMS5003;61766;60.318;25.044;2023-06-04T04:53:59;1;1;
73517;PMS5003;61766;60.318;25.044;2023-06-04T04:56:23;2;2;
73517;PMS5003;61766;60.318;25.044;2023-06-04T04:58:48;3;3;
73517;PMS5003;61766;60.318;25.044;2023-06-04T05:01:13;2;2;
73517;PMS5003;61766;60.318;25.044;2023-06-04T05:03:38;2;2;
73517;PMS5003;61766;60.318;25.044;2023-06-04T05:06:03;2;2;
73517;PMS5003;61766;60.318;25.044;2023-06-04T05:08:28;3;3;
73517;PMS5003;61766;60.318;25.044;2023-06-04T05:10:53;3;3;
73517;PMS5003;61766;60.318;25.044;2023-06-04T05:13:19;3;3;
73517;PMS5003;61766;60.318;25.044;2023-06-04T05:15:44;1;1;
73517;PMS5003;61766;60.318;25.044;2023-06-04T05:18:09;2;2;
73517;PMS5003;61766;60.318;25.044;2023-06-04T05:20:34;2;2;
73517;PMS5003;61766;60.318;25.044;2023-06-04T05:22:59;1;1;
73517;PMS5003;61766;60.318;25.044;2023-06-04T05:25:24;3;3;
73517;PMS5003;61766;60.318;25.044;2023-06-04T05:27:49;2;2;
73517;PMS5003;61766;60.318;25.044;2023-06-04T05:30:14;1;1;
73517;PMS5003;61766;60.318;25.044;2023-06-04T05:32:39;4;2;
73517;PMS5003;61766;60.318;25.044;2023-06-04T05:35:04;2;2;
73517;PMS5003;61766;60.318;25.044;2023-06-04T05:37:29;3;3;
73517;PMS5003;61766;60.318;25.044;2023-06-04T05:39:55;3;3;
73517;PMS5003;61766;60.318;25.044;2023-06-04T05:42:19;2;2;
73517;PMS5003;61766;60.318;25.044;2023-06-04T05:44:45;0;0;
73517;PMS5003;61766;60.318;25.044;2023-06-04T05:47:11;1;1;
73517;PMS5003;61766;60.318;25.044;2023-06-04T05:49:37;0;0;
73517;PMS5003;61766;60.318;25.044;2023-06-04T05:52:04;2;2;
73517;PMS5003;61766;60.318;25.044;2023-06-04T05:54:29;1;1;
73517;PMS5003;61766;60.318;25.044;2023-06-04T05:56:55;2;2;
73517;PMS5003;61766;60.318;25.044;2023-06-04T05:59:20;1;1;
73517;PMS5003;61766;60.318;25.044;2023-06-04T06:01:46;2;2;
73517;PMS5003;61766;60.318;25.044;2023-06-04T06:04:12;1;1;
73517;PMS5003;61766;60.318;25.044;2023-06-04T06:06:38;1;1;
73517;PMS5003;61766;60.318;25.044;2023-06-04T06:09:04;2;2;
73517;PMS5003;61766;60.318;25.044;2023-06-04T06:11:30;2;2;
73517;PMS5003;61766;60.318;25.044;2023-06-04T06:13:56;1;1;
73517;PMS5003;61766;60.318;25.044;2023-06-04T06:16:21;1;1;
73517;PMS5003;61766;60.318;25.044;2023-06-04T06:18:47;0;0;
73517;PMS5003;61766;60.318;25.044;2023-06-04T06:21:13;2;2;
73517;PMS5003;61766;60.318;25.044;2023-06-04T06:23:39;1;1;
73517;PMS5003;61766;60.318;25.044;2023-06-04T06:26:04;1;1;
73517;PMS5003;61766;60.318;25.044;2023-06-04T06:28:30;1;1;
73517;PMS5003;61766;60.318;25.044;2023-06-04T06:30:56;2;2;
73517;PMS5003;61766;60.318;25.044;2023-06-04T06:33:22;1;1;
73517;PMS5003;61766;60.318;25.044;2023-06-04T06:35:48;2;2;
73517;PMS5003;61766;60.318;25.044;2023-06-04T06:38:13;0;0;
73517;PMS5003;61766;60.318;25.044;2023-06-04T06:40:40;1;1;
73517;PMS5003;61766;60.318;25.044;2023-06-04T06:43:05;2;2;
73517;PMS5003;61766;60.318;25.044;2023-06-04T06:45:31;0;0;
73517;PMS5003;61766;60.318;25.044;2023-06-04T06:47:57;2;2;
73517;PMS5003;61766;60.318;25.044;2023-06-04T06:50:22;1;1;
73517;PMS5003;61766;60.318;25.044;2023-06-04T06:52:49;2;2;
73517;PMS5003;61766;60.318;25.044;2023-06-04T06:55:14;1;1;
73517;PMS5003;61766;60.318;25.044;2023-06-04T06:57:40;0;0;
73517;PMS5003;61766;60.318;25.044;2023-06-04T07:00:06;2;2;
73517;PMS5003;61766;60.318;25.044;2023-06-04T07:02:31;1;1;
73517;PMS5003;61766;60.318;25.044;2023-06-04T07:04:57;3;2;
73517;PMS5003;61766;60.318;25.044;2023-06-04T07:07:23;1;1;
73517;PMS5003;61766;60.318;25.044;2023-06-04T07:09:49;1;1;
73517;PMS5003;61766;60.318;25.044;2023-06-04T07:12:14;1;1;
73517;PMS5003;61766;60.318;25.044;2023-06-04T07:14:40;0;0;
73517;PMS5003;61766;60.318;25.044;2023-06-04T07:17:06;0;0;
73517;PMS5003;61766;60.318;25.044;2023-06-04T07:19:32;1;1;
73517;PMS5003;61766;60.318;25.044;2023-06-04T07:21:57;0;0;
73517;PMS5003;61766;60.318;25.044;2023-06-04T07:24:23;1;1;
73517;PMS5003;61766;60.318;25.044;2023-06-04T07:26:49;0;0;
73517;PMS5003;61766;60.318;25.044;2023-06-04T07:29:15;1;0;
73517;PMS5003;61766;60.318;25.044;2023-06-04T07:31:40;0;0;
73517;PMS5003;61766;60.318;25.044;2023-06-04T07:34:05;0;0;
73517;PMS5003;61766;60.318;25.044;2023-06-04T07:36:31;1;1;
73517;PMS5003;61766;60.318;25.044;2023-06-04T07:38:57;2;2;
73517;PMS5003;61766;60.318;25.044;2023-06-04T07:41:23;0;0;
73517;PMS5003;61766;60.318;25.044;2023-06-04T07:43:48;0;0;
73517;PMS5003;61766;60.318;25.044;2023-06-04T07:46:14;1;1;
73517;PMS5003;61766;60.318;25.044;2023-06-04T07:48:40;0;0;
73517;PMS5003;61766;60.318;25.044;2023-06-04T07:51:06;0;0;
73517;PMS5003;61766;60.318;25.044;2023-06-04T07:53:31;1;1;
73517;PMS5003;61766;60.318;25.044;2023-06-04T07:55:57;1;1;
73517;PMS5003;61766;60.318;25.044;2023-06-04T07:58:23;0;0;
73517;PMS5003;61766;60.318;25.044;2023-06-04T08:00:49;0;0;
73517;PMS5003;61766;60.318;25.044;2023-06-04T08:03:14;1;1;
73517;PMS5003;61766;60.318;25.044;2023-06-04T08:05:40;0;0;
73517;PMS5003;61766;60.318;25.044;2023-06-04T08:08:06;1;1;
73517;PMS5003;61766;60.318;25.044;2023-06-04T08:10:32;0;0;
73517;PMS5003;61766;60.318;25.044;2023-06-04T08:12:57;1;1;
73517;PMS5003;61766;60.318;25.044;2023-06-04T08:15:23;1;1;
73517;PMS5003;61766;60.318;25.044;2023-06-04T08:17:49;0;0;
73517;PMS5003;61766;60.318;25.044;2023-06-04T08:20:14;0;0;
73517;PMS5003;61766;60.318;25.044;2023-06-04T08:22:40;0;0;
73517;PMS5003;61766;60.318;25.044;2023-06-04T08:25:06;0;0;
73517;PMS5003;61766;60.318;25.044;2023-06-04T08:27:32;1;1;
73517;PMS5003;61766;60.318;25.044;2023-06-04T08:29:57;1;1;
73517;PMS5003;61766;60.318;25.044;2023-06-04T08:32:23;0;0;
73517;PMS5003;61766;60.318;25.044;2023-06-04T08:34:49;0;0;
73517;PMS5003;61766;60.318;25.044;2023-06-04T08:37:16;1;1;
73517;PMS5003;61766;60.318;25.044;2023-06-04T08:39:40;1;1;
73517;PMS5003;61766;60.318;25.044;2023-06-04T08:42:06;1;1;
73517;PMS5003;61766;60.318;25.044;2023-06-04T08:44:32;0;0;
73517;PMS5003;61766;60.318;25.044;2023-06-04T08:47:01;2;2;
73517;PMS5003;61766;60.318;25.044;2023-06-04T08:49:23;0;0;
73517;PMS5003;61766;60.318;25.044;2023-06-04T08:51:49;1;1;
73517;PMS5003;61766;60.318;25.044;2023-06-04T08:54:15;0;0;
73517;PMS5003;61766;60.318;25.044;2023-06-04T08:56:40;0;0;
73517;PMS5003;61766;60.318;25.044;2023-06-04T08:59:06;0;0;
73517;PMS5003;61766;60.318;25.044;2023-06-04T09:01:32;1;1;
73517;PMS5003;61766;60.318;25.044;2023-06-04T09:03:58;0;0;
73517;PMS5003;61766;60.318;25.044;2023-06-04T09:06:25;0;0;
73517;PMS5003;61766;60.318;25.044;2023-06-04T09:08:49;0;0;
73517;PMS5003;61766;60.318;25.044;2023-06-04T09:11:15;0;0;
73517;PMS5003;61766;60.318;25.044;2023-06-04T09:13:41;0;0;
73517;PMS5003;61766;60.318;25.044;2023-06-04T09:16:06;1;1;
73517;PMS5003;61766;60.318;25.044;2023-06-04T09:18:32;0;0;
73517;PMS5003;61766;60.318;25.044;2023-06-04T09:21:02;0;0;
73517;PMS5003;61766;60.318;25.044;2023-06-04T09:23:23;0;0;
73517;PMS5003;61766;60.318;25.044;2023-06-04T09:25:49;0;0;
73517;PMS5003;61766;60.318;25.044;2023-06-04T09:28:15;0;0;
73517;PMS5003;61766;60.318;25.044;2023-06-04T09:33:07;0;0;
73517;PMS5003;61766;60.318;25.044;2023-06-04T09:35:32;1;1;
73517;PMS5003;61766;60.318;25.044;2023-06-04T09:37:58;0;0;
73517;PMS5003;61766;60.318;25.044;2023-06-04T09:40:24;0;0;
73517;PMS5003;61766;60.318;25.044;2023-06-04T09:42:50;0;0;
73517;PMS5003;61766;60.318;25.044;2023-06-04T09:47:41;0;0;
73517;PMS5003;61766;60.318;25.044;2023-06-04T09:50:07;0;0;
73517;PMS5003;61766;60.318;25.044;2023-06-04T09:52:32;0;0;
73517;PMS5003;61766;60.318;25.044;2023-06-04T09:54:58;0;0;
73517;PMS5003;61766;60.318;25.044;2023-06-04T09:57:24;0;0;
73517;PMS5003;61766;60.318;25.044;2023-06-04T09:59:50;0;0;
73517;PMS5003;61766;60.318;25.044;2023-06-04T10:02:17;0;0;
73517;PMS5003;61766;60.318;25.044;2023-06-04T10:04:41;0;0;
73517;PMS5003;61766;60.318;25.044;2023-06-04T10:07:07;0;0;
73517;PMS5003;61766;60.318;25.044;2023-06-04T10:09:33;1;1;
73517;PMS5003;61766;60.318;25.044;2023-06-04T10:11:59;2;2;
73517;PMS5003;61766;60.318;25.044;2023-06-04T10:14:25;0;0;
73517;PMS5003;61766;60.318;25.044;2023-06-04T10:16:50;0;0;
73517;PMS5003;61766;60.318;25.044;2023-06-04T10:19:16;1;0;
73517;PMS5003;61766;60.318;25.044;2023-06-04T10:21:42;1;1;
73517;PMS5003;61766;60.318;25.044;2023-06-04T10:24:07;0;0;
73517;PMS5003;61766;60.318;25.044;2023-06-04T10:26:33;0;0;
73517;PMS5003;61766;60.318;25.044;2023-06-04T10:29:00;0;0;
73517;PMS5003;61766;60.318;25.044;2023-06-04T10:31:24;0;0;
73517;PMS5003;61766;60.318;25.044;2023-06-04T10:33:53;1;1;
73517;PMS5003;61766;60.318;25.044;2023-06-04T10:36:17;0;0;
73517;PMS5003;61766;60.318;25.044;2023-06-04T10:38:44;1;1;
73517;PMS5003;61766;60.318;25.044;2023-06-04T10:41:12;1;1;
73517;PMS5003;61766;60.318;25.044;2023-06-04T10:43:33;0;0;
73517;PMS5003;61766;60.318;25.044;2023-06-04T10:48:24;0;0;
73517;PMS5003;61766;60.318;25.044;2023-06-04T10:50:51;0;0;
73517;PMS5003;61766;60.318;25.044;2023-06-04T10:53:17;1;1;
73517;PMS5003;61766;60.318;25.044;2023-06-04T10:55:43;0;0;
73517;PMS5003;61766;60.318;25.044;2023-06-04T10:58:08;0;0;
73517;PMS5003;61766;60.318;25.044;2023-06-04T11:00:35;1;1;
73517;PMS5003;61766;60.318;25.044;2023-06-04T11:02:59;0;0;
73517;PMS5003;61766;60.318;25.044;2023-06-04T11:07:51;0;0;
73517;PMS5003;61766;60.318;25.044;2023-06-04T11:10:17;0;0;
73517;PMS5003;61766;60.318;25.044;2023-06-04T11:12:42;0;0;
73517;PMS5003;61766;60.318;25.044;2023-06-04T11:15:08;0;0;
73517;PMS5003;61766;60.318;25.044;2023-06-04T11:17:34;0;0;
73517;PMS5003;61766;60.318;25.044;2023-06-04T11:20:00;1;1;
73517;PMS5003;61766;60.318;25.044;2023-06-04T11:22:26;0;0;
73517;PMS5003;61766;60.318;25.044;2023-06-04T11:24:55;0;0;
73517;PMS5003;61766;60.318;25.044;2023-06-04T11:27:17;0;0;
73517;PMS5003;61766;60.318;25.044;2023-06-04T11:29:42;1;1;
73517;PMS5003;61766;60.318;25.044;2023-06-04T11:32:08;0;0;
73517;PMS5003;61766;60.318;25.044;2023-06-04T11:34:34;0;0;
73517;PMS5003;61766;60.318;25.044;2023-06-04T11:39:33;0;0;
73517;PMS5003;61766;60.318;25.044;2023-06-04T11:41:51;0;0;
73517;PMS5003;61766;60.318;25.044;2023-06-04T11:44:18;1;1;
73517;PMS5003;61766;60.318;25.044;2023-06-04T11:46:43;1;1;
73517;PMS5003;61766;60.318;25.044;2023-06-04T11:49:11;0;0;
73517;PMS5003;61766;60.318;25.044;2023-06-04T11:51:34;0;0;
73517;PMS5003;61766;60.318;25.044;2023-06-04T11:54:00;0;0;
73517;PMS5003;61766;60.318;25.044;2023-06-04T11:56:26;9;6;
73517;PMS5003;61766;60.318;25.044;2023-06-04T11:58:51;13;12;
73517;PMS5003;61766;60.318;25.044;2023-06-04T12:01:17;4;3;
73517;PMS5003;61766;60.318;25.044;2023-06-04T12:03:42;8;5;
73517;PMS5003;61766;60.318;25.044;2023-06-04T12:06:12;3;2;
73517;PMS5003;61766;60.318;25.044;2023-06-04T12:08:34;5;5;
73517;PMS5003;61766;60.318;25.044;2023-06-04T12:10:59;4;4;
73517;PMS5003;61766;60.318;25.044;2023-06-04T12:13:24;3;2;
73517;PMS5003;61766;60.318;25.044;2023-06-04T12:15:52;1;1;
73517;PMS5003;61766;60.318;25.044;2023-06-04T12:20:41;0;0;
73517;PMS5003;61766;60.318;25.044;2023-06-04T12:23:08;0;0;
73517;PMS5003;61766;60.318;25.044;2023-06-04T12:25:34;0;0;
73517;PMS5003;61766;60.318;25.044;2023-06-04T12:27:59;1;0;
73517;PMS5003;61766;60.318;25.044;2023-06-04T12:32:50;1;1;
73517;PMS5003;61766;60.318;25.044;2023-06-04T12:35:16;0;0;
73517;PMS5003;61766;60.318;25.044;2023-06-04T12:37:42;0;0;
73517;PMS5003;61766;60.318;25.044;2023-06-04T12:40:08;0;0;
73517;PMS5003;61766;60.318;25.044;2023-06-04T12:42:33;0;0;
73517;PMS5003;61766;60.318;25.044;2023-06-04T12:44:59;1;1;
73517;PMS5003;61766;60.318;25.044;2023-06-04T12:47:25;1;1;
73517;PMS5003;61766;60.318;25.044;2023-06-04T12:49:50;0;0;
73517;PMS5003;61766;60.318;25.044;2023-06-04T12:52:16;1;1;
73517;PMS5003;61766;60.318;25.044;2023-06-04T12:54:42;1;0;
73517;PMS5003;61766;60.318;25.044;2023-06-04T12:57:07;0;0;
73517;PMS5003;61766;60.318;25.044;2023-06-04T12:59:33;0;0;
73517;PMS5003;61766;60.318;25.044;2023-06-04T13:01:59;0;0;
73517;PMS5003;61766;60.318;25.044;2023-06-04T13:04:25;0;0;
73517;PMS5003;61766;60.318;25.044;2023-06-04T13:06:51;1;1;
73517;PMS5003;61766;60.318;25.044;2023-06-04T13:09:16;1;0;
73517;PMS5003;61766;60.318;25.044;2023-06-04T13:11:42;0;0;
73517;PMS5003;61766;60.318;25.044;2023-06-04T13:14:08;0;0;
73517;PMS5003;61766;60.318;25.044;2023-06-04T13:16:33;0;0;
73517;PMS5003;61766;60.318;25.044;2023-06-04T13:18:59;0;0;
73517;PMS5003;61766;60.318;25.044;2023-06-04T13:21:25;1;1;
73517;PMS5003;61766;60.318;25.044;2023-06-04T13:23:50;0;0;
73517;PMS5003;61766;60.318;25.044;2023-06-04T13:26:16;0;0;
73517;PMS5003;61766;60.318;25.044;2023-06-04T13:28:42;2;2;
73517;PMS5003;61766;60.318;25.044;2023-06-04T13:31:09;0;0;
73517;PMS5003;61766;60.318;25.044;2023-06-04T13:33:33;1;1;
73517;PMS5003;61766;60.318;25.044;2023-06-04T13:35:59;1;1;
73517;PMS5003;61766;60.318;25.044;2023-06-04T13:38:25;0;0;
73517;PMS5003;61766;60.318;25.044;2023-06-04T13:40:51;0;0;
73517;PMS5003;61766;60.318;25.044;2023-06-04T13:43:16;0;0;
73517;PMS5003;61766;60.318;25.044;2023-06-04T13:45:42;0;0;
73517;PMS5003;61766;60.318;25.044;2023-06-04T13:48:08;0;0;
73517;PMS5003;61766;60.318;25.044;2023-06-04T13:50:34;1;1;
73517;PMS5003;61766;60.318;25.044;2023-06-04T13:52:59;0;0;
73517;PMS5003;61766;60.318;25.044;2023-06-04T13:55:25;0;0;
73517;PMS5003;61766;60.318;25.044;2023-06-04T13:57:51;0;0;
73517;PMS5003;61766;60.318;25.044;2023-06-04T14:00:17;1;1;
73517;PMS5003;61766;60.318;25.044;2023-06-04T14:02:42;0;0;
73517;PMS5003;61766;60.318;25.044;2023-06-04T14:05:08;0;0;
73517;PMS5003;61766;60.318;25.044;2023-06-04T14:07:34;0;0;
73517;PMS5003;61766;60.318;25.044;2023-06-04T14:09:59;0;0;
73517;PMS5003;61766;60.318;25.044;2023-06-04T14:12:25;1;0;
73517;PMS5003;61766;60.318;25.044;2023-06-04T14:14:51;0;0;
73517;PMS5003;61766;60.318;25.044;2023-06-04T14:17:17;0;0;
73517;PMS5003;61766;60.318;25.044;2023-06-04T14:19:42;0;0;
73517;PMS5003;61766;60.318;25.044;2023-06-04T14:22:09;0;0;
73517;PMS5003;61766;60.318;25.044;2023-06-04T14:24:34;2;2;
73517;PMS5003;61766;60.318;25.044;2023-06-04T14:27:00;0;0;
73517;PMS5003;61766;60.318;25.044;2023-06-04T14:29:25;0;0;
73517;PMS5003;61766;60.318;25.044;2023-06-04T14:31:51;0;0;
73517;PMS5003;61766;60.318;25.044;2023-06-04T14:34:17;0;0;
73517;PMS5003;61766;60.318;25.044;2023-06-04T14:36:43;0;0;
73517;PMS5003;61766;60.318;25.044;2023-06-04T14:39:08;0;0;
73517;PMS5003;61766;60.318;25.044;2023-06-04T14:41:34;0;0;
73517;PMS5003;61766;60.318;25.044;2023-06-04T14:44:00;1;1;
73517;PMS5003;61766;60.318;25.044;2023-06-04T14:46:26;0;0;
73517;PMS5003;61766;60.318;25.044;2023-06-04T14:48:51;0;0;
73517;PMS5003;61766;60.318;25.044;2023-06-04T14:51:17;0;0;
73517;PMS5003;61766;60.318;25.044;2023-06-04T14:53:43;0;0;
73517;PMS5003;61766;60.318;25.044;2023-06-04T14:56:09;0;0;
73517;PMS5003;61766;60.318;25.044;2023-06-04T14:58:34;1;1;
73517;PMS5003;61766;60.318;25.044;2023-06-04T15:01:00;0;0;
73517;PMS5003;61766;60.318;25.044;2023-06-04T15:03:26;0;0;
73517;PMS5003;61766;60.318;25.044;2023-06-04T15:05:52;1;1;
73517;PMS5003;61766;60.318;25.044;2023-06-04T15:08:17;1;1;
73517;PMS5003;61766;60.318;25.044;2023-06-04T15:10:43;1;1;
73517;PMS5003;61766;60.318;25.044;2023-06-04T15:13:09;0;0;
73517;PMS5003;61766;60.318;25.044;2023-06-04T15:15:34;0;0;
73517;PMS5003;61766;60.318;25.044;2023-06-04T15:18:00;0;0;
73517;PMS5003;61766;60.318;25.044;2023-06-04T15:20:26;0;0;
73517;PMS5003;61766;60.318;25.044;2023-06-04T15:22:52;0;0;
73517;PMS5003;61766;60.318;25.044;2023-06-04T15:25:17;0;0;
73517;PMS5003;61766;60.318;25.044;2023-06-04T15:27:43;0;0;
73517;PMS5003;61766;60.318;25.044;2023-06-04T15:30:09;0;0;
73517;PMS5003;61766;60.318;25.044;2023-06-04T15:32:35;0;0;
73517;PMS5003;61766;60.318;25.044;2023-06-04T15:35:01;2;1;
73517;PMS5003;61766;60.318;25.044;2023-06-04T15:37:26;0;0;
73517;PMS5003;61766;60.318;25.044;2023-06-04T15:39:52;0;0;
73517;PMS5003;61766;60.318;25.044;2023-06-04T15:42:18;0;0;
73517;PMS5003;61766;60.318;25.044;2023-06-04T15:44:44;1;1;
73517;PMS5003;61766;60.318;25.044;2023-06-04T15:47:09;0;0;
73517;PMS5003;61766;60.318;25.044;2023-06-04T15:49:35;1;1;
73517;PMS5003;61766;60.318;25.044;2023-06-04T15:52:01;1;1;
73517;PMS5003;61766;60.318;25.044;2023-06-04T15:54:27;0;0;
73517;PMS5003;61766;60.318;25.044;2023-06-04T15:56:52;0;0;
73517;PMS5003;61766;60.318;25.044;2023-06-04T15:59:18;0;0;
73517;PMS5003;61766;60.318;25.044;2023-06-04T16:01:44;0;0;
73517;PMS5003;61766;60.318;25.044;2023-06-04T16:04:10;0;0;
73517;PMS5003;61766;60.318;25.044;2023-06-04T16:06:36;1;1;
73517;PMS5003;61766;60.318;25.044;2023-06-04T16:09:01;0;0;
73517;PMS5003;61766;60.318;25.044;2023-06-04T16:11:27;1;1;
73517;PMS5003;61766;60.318;25.044;2023-06-04T16:13:53;0;0;
73517;PMS5003;61766;60.318;25.044;2023-06-04T16:16:19;0;0;
73517;PMS5003;61766;60.318;25.044;2023-06-04T16:18:49;0;0;
73517;PMS5003;61766;60.318;25.044;2023-06-04T16:21:10;1;0;
73517;PMS5003;61766;60.318;25.044;2023-06-04T16:23:36;1;1;
73517;PMS5003;61766;60.318;25.044;2023-06-04T16:26:02;0;0;
73517;PMS5003;61766;60.318;25.044;2023-06-04T16:28:28;1;1;
73517;PMS5003;61766;60.318;25.044;2023-06-04T16:30:53;0;0;
73517;PMS5003;61766;60.318;25.044;2023-06-04T16:33:19;0;0;
73517;PMS5003;61766;60.318;25.044;2023-06-04T16:35:45;1;1;
73517;PMS5003;61766;60.318;25.044;2023-06-04T16:38:10;1;1;